Latest Weather Observations for Mount Hotham

IDV60801

Issued at 6:12 pm EST Monday 22 April 2019 (issued every 10 minutes, with the page automatically refreshed every 10 minutes)

About weather observations | Map of weather stations | Latest weather observations for VIC | Other Formats
Station Details ID: 083085 Name: MOUNT HOTHAM Lat: -36.98 Lon: 147.13 Height: 1849.0 m
Data from the previous 72 hours. | See also: Recent months at Mount Hotham
Date/Time
EST
Temp
°C
App
Temp
°C
Dew
Point
°C
Rel
Hum
%
Delta-T
°C
Wind Press
QNH
hPa
Press
MSL
hPa
Rain since
9am
mm
Dir  Spd
km/h
Gust
km/h
Spd
kts
Gust
kts
22/06:00pm 7.3 4.2 7.3 100 0.0 ESE 13 19 7 10 - - 0.4
22/05:30pm 7.7 5.1 7.7 100 0.0 E 11 15 6 8 - - 0.4
22/05:00pm 8.1 6.0 8.1 100 0.0 ESE 9 13 5 7 - - 0.4
22/04:30pm 8.3 6.2 8.3 100 0.0 ESE 9 11 5 6 - - 0.4
22/04:00pm 8.8 7.4 8.8 100 0.0 SE 6 9 3 5 - - 0.0
22/03:30pm 9.1 8.5 9.0 99 0.1 E 2 9 1 5 - - 0.0
22/03:00pm 9.7 9.2 9.4 98 0.2 SW 2 6 1 3 - - 0.0
22/02:30pm 9.4 7.9 8.5 94 0.5 W 6 13 3 7 - - 0.0
22/02:00pm 9.8 7.3 8.4 91 0.8 NNW 11 19 6 10 - - 0.0
22/01:30pm 10.2 7.5 9.1 93 0.6 NNW 13 20 7 11 - - 0.0
22/01:00pm 10.6 8.2 8.7 88 1.0 NNW 11 17 6 9 - - 0.0
22/12:30pm 11.5 8.7 8.7 83 1.5 N 13 22 7 12 - - 0.0
22/12:00pm 11.1 8.4 9.0 87 1.2 NNW 13 20 7 11 - - 0.0
22/11:30am 10.2 7.0 8.5 89 0.9 N 15 22 8 12 - - 0.0
22/11:00am 11.8 7.9 6.9 72 2.6 N 17 26 9 14 - - 0.0
22/10:30am 11.4 8.8 7.9 79 1.9 NNE 11 17 6 9 - - 0.0
22/10:00am 10.4 6.5 6.9 79 1.8 N 17 20 9 11 - - 0.0
22/09:30am 10.6 6.6 6.6 76 2.1 N 17 20 9 11 - - 0.0
22/09:00am 9.7 5.7 6.6 81 1.6 N 17 20 9 11 - - 15.6
22/08:30am 9.4 5.2 5.9 79 1.8 NNE 17 24 9 13 - - 15.6
22/08:00am 8.4 4.3 6.4 87 1.0 NNE 17 22 9 12 - - 15.6
22/07:30am 7.4 3.2 7.4 100 0.0 NNE 19 20 10 11 - - 15.6
22/07:00am 7.5 3.7 7.5 100 0.0 NNW 17 19 9 10 - - 15.6
22/06:30am 7.5 3.7 7.5 100 0.0 NNW 17 19 9 10 - - 15.6
22/06:00am 7.4 3.9 7.4 100 0.0 NNW 15 20 8 11 - - 15.6
22/05:30am 7.4 3.6 7.4 100 0.0 N 17 22 9 12 - - 15.6
22/05:00am 7.3 3.4 7.3 100 0.0 N 17 20 9 11 - - 15.4
22/04:30am 7.3 3.8 7.3 100 0.0 N 15 17 8 9 - - 15.4
22/04:00am 7.3 3.1 7.3 100 0.0 N 19 26 10 14 - - 15.4
22/03:30am 7.3 2.1 7.3 100 0.0 N 24 30 13 16 - - 15.4
22/03:00am 7.4 2.2 7.4 100 0.0 NNW 24 33 13 18 - - 15.4
22/02:30am 7.3 2.1 7.3 100 0.0 NNW 24 35 13 19 - - 15.4
22/02:00am 7.3 1.4 7.3 100 0.0 N 28 35 15 19 - - 15.2
22/01:30am 7.3 1.0 7.3 100 0.0 NNW 30 41 16 22 - - 14.2
22/01:00am 7.6 0.9 7.2 97 0.2 NW 32 46 17 25 - - 12.6
22/12:30am 8.3 3.3 6.4 88 1.0 NW 22 33 12 18 - - 11.4
22/12:00am 8.0 3.5 7.1 94 0.5 NW 20 28 11 15 - - 11.4
 
Date/Time
EST
Temp
°C
App
Temp
°C
Dew
Point
°C
Rel
Hum
%
Delta-T
°C
Wind Press
QNH
hPa
Press
MSL
hPa
Rain since
9am
mm
Dir  Spd
km/h
Gust
km/h
Spd
kts
Gust
kts
21/11:30pm 7.8 3.9 7.1 95 0.4 W 17 22 9 12 - - 11.2
21/11:00pm 7.5 3.1 6.6 94 0.5 WSW 19 24 10 13 - - 9.6
21/10:30pm 7.3 4.6 7.3 100 0.0 NNW 11 17 6 9 - - 6.0
21/10:00pm 7.6 3.2 7.6 100 0.0 W 20 28 11 15 - - 4.0
21/09:30pm 7.3 2.9 7.2 99 0.1 WSW 20 30 11 16 - - 2.4
21/09:00pm 7.6 2.8 7.5 99 0.1 SW 22 39 12 21 - - 0.0
21/08:51pm 8.3 3.6 7.9 97 0.2 NNW 22 43 12 23 - - 0.0
21/08:30pm 9.8 5.9 9.5 98 0.2 N 20 24 11 13 - - 0.0
21/08:00pm 9.7 6.0 9.4 98 0.2 N 19 22 10 12 - - 0.0
21/07:30pm 9.7 5.9 9.2 97 0.3 N 19 22 10 12 - - 0.0
21/07:00pm 9.7 5.3 9.1 96 0.3 NNE 22 28 12 15 - - 0.0
21/06:30pm 9.7 5.7 9.1 96 0.3 N 20 24 11 13 - - 0.0
21/06:00pm 9.7 5.9 9.1 96 0.3 N 19 22 10 12 - - 0.0
21/05:30pm 10.0 6.6 9.2 95 0.4 N 17 20 9 11 - - 0.0
21/05:00pm 10.1 6.3 9.2 94 0.5 N 19 24 10 13 - - 0.0
21/04:30pm 10.4 6.0 8.8 90 0.9 N 22 32 12 17 - - 0.0
21/04:00pm 10.6 6.1 8.7 88 1.0 NNW 22 32 12 17 - - 0.0
21/03:30pm 10.8 6.0 8.9 88 1.0 NNW 24 33 13 18 - - 0.0
21/03:00pm 11.0 6.7 9.4 90 0.9 NNW 22 32 12 17 - - 0.0
21/02:30pm 11.0 6.3 9.1 88 1.0 NNW 24 35 13 19 - - 0.0
21/02:00pm 12.1 7.5 9.5 84 1.5 NNW 24 39 13 21 - - 0.0
21/01:30pm 12.0 6.0 8.7 80 1.8 NNW 30 44 16 24 - - 0.0
21/01:00pm 11.5 5.6 9.2 86 1.3 NNW 30 44 16 24 - - 0.0
21/12:31pm 11.4 5.2 9.3 87 1.2 NNW 32 50 17 27 - - 0.0
21/12:30pm 11.9 5.8 9.8 87 1.2 NNW 32 43 17 23 - - 0.0
21/12:00pm 11.2 4.9 9.8 91 0.8 NNW 33 43 18 23 - - 0.0
21/11:56am 10.7 4.4 9.6 93 0.6 NNW 33 52 18 28 - - 0.0
21/11:30am 10.1 3.3 9.3 95 0.4 NNW 35 50 19 27 - - 0.0
21/11:23am 9.7 2.5 9.1 96 0.3 NNW 37 56 20 30 - - 0.0
21/11:00am 9.8 1.4 9.0 95 0.4 NNW 43 54 23 29 - - 0.0
21/10:30am 9.3 1.6 8.7 96 0.3 NNW 39 50 21 27 - - 0.0
21/10:00am 10.2 2.8 8.5 89 0.9 N 37 48 20 26 - - 0.0
21/09:30am 9.9 2.8 8.0 88 1.0 N 35 46 19 25 - - 0.0
21/09:00am 9.9 2.0 7.7 86 1.2 N 39 50 21 27 - - 0.0
21/08:30am 9.3 1.0 7.6 89 0.9 N 41 52 22 28 - - 0.0
21/08:00am 9.2 0.4 7.2 87 1.0 N 43 56 23 30 - - 0.0
21/07:30am 9.5 0.4 6.8 83 1.4 N 44 57 24 31 - - 0.0
21/07:00am 9.1 0.0 5.7 79 1.7 NNW 43 57 23 31 - - 0.0
21/06:30am 9.5 0.4 5.9 78 1.8 N 43 56 23 30 - - 0.0
21/06:00am 9.5 -0.2 5.7 77 1.9 N 46 61 25 33 - - 0.0
21/05:50am 9.3 0.5 5.7 78 1.8 N 41 59 22 32 - - 0.0
21/05:30am 9.3 0.5 5.7 78 1.8 N 41 52 22 28 - - 0.0
21/05:00am 9.4 0.7 5.8 78 1.8 N 41 56 22 30 - - 0.0
21/04:30am 9.2 0.5 5.9 80 1.7 N 41 54 22 29 - - 0.0
21/04:00am 9.4 0.7 5.9 79 1.8 N 41 54 22 29 - - 0.0
21/03:30am 9.5 0.8 5.9 78 1.8 N 41 52 22 28 - - 0.0
21/03:00am 9.4 1.8 5.8 78 1.8 NNW 35 48 19 26 - - 0.0
21/02:30am 9.9 2.0 6.1 77 2.0 N 37 46 20 25 - - 0.0
21/02:00am 9.8 2.6 5.8 76 2.0 N 33 46 18 25 - - 0.0
21/01:30am 9.5 1.1 5.5 76 2.0 N 39 48 21 26 - - 0.0
21/01:00am 9.9 1.9 5.7 75 2.1 N 37 48 20 26 - - 0.0
21/12:30am 9.5 1.9 5.7 77 1.9 N 35 41 19 22 - - 0.0
21/12:00am 9.6 1.3 6.0 78 1.8 NNW 39 46 21 25 - - 0.0
 
Date/Time
EST
Temp
°C
App
Temp
°C
Dew
Point
°C
Rel
Hum
%
Delta-T
°C
Wind Press
QNH
hPa
Press
MSL
hPa
Rain since
9am
mm
Dir  Spd
km/h
Gust
km/h
Spd
kts
Gust
kts
20/11:30pm 9.4 1.9 6.1 80 1.7 NNW 35 48 19 26 - - 0.0
20/11:00pm 9.1 2.0 6.4 83 1.4 NNW 33 46 18 25 - - 0.0
20/10:30pm 9.4 2.9 6.5 82 1.5 NNW 30 41 16 22 - - 0.0
20/10:00pm 8.4 3.4 6.5 88 1.0 N 22 26 12 14 - - 0.0
20/09:30pm 8.6 4.2 6.7 88 1.0 N 19 22 10 12 - - 0.0
20/09:00pm 8.9 5.6 6.3 84 1.3 N 13 15 7 8 - - 0.0
20/08:30pm 8.7 5.0 6.2 84 1.3 NNW 15 17 8 9 - - 0.0
20/08:00pm 8.9 5.2 6.2 83 1.4 NNW 15 17 8 9 - - 0.0
20/07:30pm 9.6 5.9 6.5 81 1.6 NNW 15 19 8 10 - - 0.0
20/07:00pm 9.0 4.8 5.9 81 1.6 NNW 17 19 9 10 - - 0.0
20/06:30pm 9.0 5.6 5.7 80 1.7 NNW 13 15 7 8 - - 0.0
20/06:00pm 9.5 5.3 5.7 77 1.9 NNW 17 19 9 10 - - 0.0
20/05:30pm 10.3 6.1 5.7 73 2.4 NW 17 20 9 11 - - 0.0
20/05:00pm 11.4 7.6 5.9 69 2.8 NNW 15 22 8 12 - - 0.0
20/04:30pm 12.1 8.7 5.9 66 3.2 NNW 13 20 7 11 - - 0.0
20/04:00pm 12.9 9.9 5.8 62 3.7 NNW 11 19 6 10 - - 0.0
20/03:30pm 12.8 9.2 6.6 66 3.3 NNW 15 20 8 11 - - 0.0
20/03:00pm 13.0 8.9 6.1 63 3.6 N 17 28 9 15 - - 0.0
20/02:30pm 13.0 9.4 6.6 65 3.4 NNW 15 24 8 13 - - 0.0
20/02:00pm 12.9 8.6 6.9 67 3.2 NNW 19 28 10 15 - - 0.0
20/01:30pm 12.2 7.4 5.8 65 3.3 NNW 20 32 11 17 - - 0.0
20/01:00pm 12.2 6.9 6.7 69 2.9 NNW 24 41 13 22 - - 0.0
20/12:30pm 12.2 6.5 6.5 68 3.0 NNW 26 39 14 21 - - 0.0
20/12:00pm 12.1 6.0 6.6 69 2.9 N 28 37 15 20 - - 0.0
20/11:30am 12.1 5.7 6.8 70 2.8 NNW 30 41 16 22 - - 0.0
20/11:00am 12.3 6.3 7.2 71 2.7 NNW 28 35 15 19 - - 0.0
20/10:30am 11.8 5.3 6.5 70 2.8 N 30 41 16 22 - - 0.0
20/10:00am 11.8 5.3 6.7 71 2.7 NNW 30 37 16 20 - - 0.0
20/09:30am 11.2 5.0 6.3 72 2.6 N 28 37 15 20 - - 0.0
20/09:00am 10.7 4.9 6.3 74 2.3 N 26 33 14 18 - - 0.0
20/08:30am 10.2 4.4 6.2 76 2.1 N 26 33 14 18 - - 0.0
20/08:00am 9.7 3.9 6.2 79 1.8 NNW 26 33 14 18 - - 0.0
20/07:30am 8.8 3.0 6.3 84 1.3 NNW 26 32 14 17 - - 0.0
20/07:00am 8.2 2.3 6.0 86 1.1 NNW 26 30 14 16 - - 0.0
20/06:30am 7.8 2.2 5.6 86 1.1 NNW 24 32 13 17 - - 0.0
20/06:00am 8.2 2.6 5.5 83 1.4 NNW 24 28 13 15 - - 0.0
20/05:30am 8.2 2.6 5.3 82 1.5 NNW 24 28 13 15 - - 0.0
20/05:00am 8.5 3.3 5.4 81 1.6 NNW 22 26 12 14 - - 0.0
20/04:30am 8.5 3.3 5.4 81 1.6 NNW 22 26 12 14 - - 0.0
20/04:00am 8.2 2.6 5.3 82 1.5 NNW 24 26 13 14 - - 0.0
20/03:30am 8.0 2.8 5.3 83 1.3 NNW 22 24 12 13 - - 0.0
20/03:00am 8.1 2.9 5.6 84 1.3 NNW 22 28 12 15 - - 0.0
20/02:30am 8.6 2.7 5.7 82 1.5 NNW 26 32 14 17 - - 0.0
20/02:00am 8.4 2.5 5.9 84 1.3 NNW 26 30 14 16 - - 0.0
20/01:30am 8.8 3.2 5.5 80 1.7 NNW 24 32 13 17 - - 0.0
20/01:00am 8.1 2.9 5.6 84 1.3 NNW 22 30 12 16 - - 0.0
20/12:30am 8.4 2.5 5.7 83 1.4 NNW 26 30 14 16 - - 0.0
20/12:00am 8.7 3.1 5.6 81 1.6 NNW 24 30 13 16 - - 0.0
 
Date/Time
EST
Temp
°C
App
Temp
°C
Dew
Point
°C
Rel
Hum
%
Delta-T
°C
Wind Press
QNH
hPa
Press
MSL
hPa
Rain since
9am
mm
Dir  Spd
km/h
Gust
km/h
Spd
kts
Gust
kts
19/11:30pm 8.7 2.4 5.8 82 1.5 NNW 28 32 15 17 - - 0.0
19/11:00pm 8.5 2.6 6.0 84 1.3 NNW 26 32 14 17 - - 0.0
19/10:30pm 8.4 3.0 6.2 86 1.1 NNW 24 30 13 16 - - 0.0
19/10:00pm 8.4 2.8 5.5 82 1.5 NNW 24 28 13 15 - - 0.0
19/09:30pm 7.8 3.2 5.6 86 1.1 NNW 19 20 10 11 - - 0.0
19/09:00pm 8.2 3.6 6.7 90 0.8 N 20 24 11 13 - - 0.0
19/08:30pm 7.9 3.3 6.5 91 0.7 N 20 24 11 13 - - 0.0
19/08:00pm 7.9 2.5 6.5 91 0.7 NNW 24 26 13 14 - - 0.0
19/07:30pm 8.1 2.8 6.6 90 0.8 NNW 24 26 13 14 - - 0.0
19/07:00pm 7.9 2.9 6.5 91 0.7 NNW 22 26 12 14 - - 0.0
19/06:30pm 8.4 3.8 6.7 89 0.9 NNW 20 26 11 14 - - 0.0

Other formats

Comma delimited format used in spreadsheet applications
http://www.bom.gov.au/fwo/IDV60801/IDV60801.94906.axf

JavaScript Object Notation format (JSON) in row-major order
http://www.bom.gov.au/fwo/IDV60801/IDV60801.94906.json

Data quality

Most of these data are generated automatically and are frequently updated. Quality checks on data are not normally performed. It is possible for incorrect values to appear. Refer to information at About Latest Weather Observations and please check the disclaimer before using these data.